Aviation Digital Data Service (ADDS)

Output produced by METARs form (2205 UTC 19 April 2014)
found at http://www.aviationweather.gov/adds/metars/
 
KDCA 192047Z 1921/2018 03006KT P6SM BKN250 
     FM201400 06011KT P6SM SCT250